Time;durP1;ratioP1;P1;durP2;ratioP2;P2;SDS_P1;SDS_P2;PMS_P1;PMS_P2;Temp;Humidity;BMP_temperature;BMP_pressure;BME280_temperature;BME280_humidity;BME280_pressure;Samples;Min_cycle;Max_cycle;Signal;HPM_P1;HPM_P2
2023/10/17 00:01:13;;;;;;;4.00;1.93;;;;;;;;;;5051720;27;89202;-58
2023/10/17 00:03:45;;;;;;;4.53;2.17;;;;;;;;;;5047442;27;87621;-58
2023/10/17 00:06:16;;;;;;;8.97;2.20;;;;;;;;;;5055260;27;89531;-58
2023/10/17 00:08:50;;;;;;;2.40;1.63;;;;;;;;;;5057572;27;89834;-58
2023/10/17 00:11:26;;;;;;;2.27;1.63;;;;;;;;;;5055603;27;87716;-58
2023/10/17 00:14:07;;;;;;;2.93;1.60;;;;;;;;;;5056023;27;87959;-58
2023/10/17 00:16:37;;;;;;;5.33;1.93;;;;;;;;;;5048411;27;88234;-58
2023/10/17 00:19:09;;;;;;;1.63;1.00;;;;;;;;;;5057301;27;89308;-58
2023/10/17 00:21:39;;;;;;;1.47;1.33;;;;;;;;;;5055497;27;88896;-58
2023/10/17 00:24:09;;;;;;;2.03;1.63;;;;;;;;;;5051676;27;87625;-58
2023/10/17 00:26:37;;;;;;;1.47;1.17;;;;;;;;;;5044764;27;88500;-58
2023/10/17 00:29:07;;;;;;;1.60;1.50;;;;;;;;;;5047407;27;89254;-58
2023/10/17 00:31:36;;;;;;;2.17;1.40;;;;;;;;;;5051040;27;88080;-58
2023/10/17 00:34:13;;;;;;;2.97;1.43;;;;;;;;;;5060136;27;87630;-58
2023/10/17 00:36:49;;;;;;;3.13;1.40;;;;;;;;;;5053724;27;89890;-57
2023/10/17 00:39:23;;;;;;;3.00;1.63;;;;;;;;;;5061665;27;89897;-58
2023/10/17 00:42:02;;;;;;;2.77;1.70;;;;;;;;;;5056039;27;91706;-58
2023/10/17 00:44:31;;;;;;;3.47;1.50;;;;;;;;;;5043439;27;87504;-57
2023/10/17 00:46:59;;;;;;;2.43;2.00;;;;;;;;;;5058293;27;89592;-58
2023/10/17 00:49:29;;;;;;;2.53;1.93;;;;;;;;;;5054704;27;88047;-57
2023/10/17 00:51:59;;;;;;;2.77;1.60;;;;;;;;;;5049797;27;88991;-58
2023/10/17 00:54:29;;;;;;;2.30;1.33;;;;;;;;;;5053573;27;87525;-58
2023/10/17 00:57:00;;;;;;;1.93;1.30;;;;;;;;;;5054268;27;89615;-57
2023/10/17 00:59:30;;;;;;;3.87;1.43;;;;;;;;;;5059997;27;89067;-58
2023/10/17 01:01:58;;;;;;;3.47;1.83;;;;;;;;;;5050795;27;90055;-58
2023/10/17 01:04:28;;;;;;;2.27;1.53;;;;;;;;;;5059012;27;88034;-58
2023/10/17 01:07:05;;;;;;;2.07;1.50;;;;;;;;;;5051881;27;88700;-57
2023/10/17 01:09:34;;;;;;;3.53;1.63;;;;;;;;;;5054715;27;89229;-58
2023/10/17 01:12:08;;;;;;;1.50;1.03;;;;;;;;;;5053450;27;88879;-57
2023/10/17 01:14:36;;;;;;;3.17;1.53;;;;;;;;;;5059339;27;88621;-58
2023/10/17 01:17:07;;;;;;;1.40;1.30;;;;;;;;;;5056428;27;89621;-57
2023/10/17 01:19:36;;;;;;;0.93;0.93;;;;;;;;;;5057423;27;89169;-57
2023/10/17 01:22:06;;;;;;;3.00;1.23;;;;;;;;;;5057655;27;88790;-57
2023/10/17 01:24:35;;;;;;;2.27;1.40;;;;;;;;;;5057425;27;87620;-57
2023/10/17 01:27:06;;;;;;;3.60;1.80;;;;;;;;;;5056535;27;89770;-57
2023/10/17 01:29:35;;;;;;;2.33;1.80;;;;;;;;;;5057869;27;90059;-57
2023/10/17 01:32:05;;;;;;;1.83;1.13;;;;;;;;;;5059945;27;89824;-57
2023/10/17 01:34:36;;;;;;;1.37;1.20;;;;;;;;;;5058801;27;87544;-58
2023/10/17 01:37:07;;;;;;;1.83;1.53;;;;;;;;;;5060788;27;89715;-58
2023/10/17 01:39:37;;;;;;;2.67;1.73;;;;;;;;;;5058549;27;89153;-58
2023/10/17 01:42:06;;;;;;;2.77;1.57;;;;;;;;;;5060730;27;88910;-57
2023/10/17 01:44:35;;;;;;;1.70;1.30;;;;;;;;;;5058049;27;87636;-57
2023/10/17 01:47:07;;;;;;;4.70;1.80;;;;;;;;;;5060309;27;88694;-57
2023/10/17 01:49:37;;;;;;;1.93;1.67;;;;;;;;;;5058538;27;87949;-58
2023/10/17 01:52:07;;;;;;;4.90;1.60;;;;;;;;;;5061084;27;88836;-58
2023/10/17 01:54:37;;;;;;;2.20;1.57;;;;;;;;;;5058043;27;87981;-58
2023/10/17 01:57:07;;;;;;;1.50;1.07;;;;;;;;;;5060227;27;88733;-58
2023/10/17 01:59:36;;;;;;;3.40;1.80;;;;;;;;;;5059089;27;89108;-57
2023/10/17 02:02:05;;;;;;;2.50;1.83;;;;;;;;;;5060681;27;88837;-58
2023/10/17 02:04:35;;;;;;;2.17;1.70;;;;;;;;;;5056809;27;87903;-58
2023/10/17 02:07:04;;;;;;;2.07;1.60;;;;;;;;;;5059265;27;88541;-57
2023/10/17 02:09:48;;;;;;;2.33;1.57;;;;;;;;;;5055667;27;89003;-58
2023/10/17 02:12:19;;;;;;;3.27;2.03;;;;;;;;;;5055850;27;87630;-58
2023/10/17 02:14:48;;;;;;;2.10;1.90;;;;;;;;;;5057791;27;87527;-57
2023/10/17 02:17:18;;;;;;;2.10;1.43;;;;;;;;;;5057798;27;89628;-57
2023/10/17 02:19:47;;;;;;;2.23;1.70;;;;;;;;;;5057853;27;89748;-57
2023/10/17 02:22:16;;;;;;;4.57;1.80;;;;;;;;;;5058474;27;90154;-57
2023/10/17 02:24:45;;;;;;;3.63;1.70;;;;;;;;;;5060136;27;87632;-57
2023/10/17 02:27:14;;;;;;;1.93;1.63;;;;;;;;;;5056921;27;88569;-57
2023/10/17 02:29:47;;;;;;;4.93;2.23;;;;;;;;;;5060355;27;89168;-57
2023/10/17 02:32:18;;;;;;;2.27;1.97;;;;;;;;;;5056840;27;89160;-57
2023/10/17 02:34:47;;;;;;;2.87;1.80;;;;;;;;;;5060540;27;87594;-57
2023/10/17 02:37:19;;;;;;;3.40;1.83;;;;;;;;;;5057427;27;89850;-57
2023/10/17 02:39:47;;;;;;;4.43;2.60;;;;;;;;;;5060161;27;89224;-57
2023/10/17 02:42:16;;;;;;;3.73;2.10;;;;;;;;;;5059971;27;88713;-57
2023/10/17 02:44:45;;;;;;;4.93;2.33;;;;;;;;;;5059869;27;87973;-57
2023/10/17 02:47:15;;;;;;;3.60;2.57;;;;;;;;;;5059811;27;89417;-57
2023/10/17 02:49:45;;;;;;;5.50;2.73;;;;;;;;;;5059279;27;89021;-57
2023/10/17 02:52:17;;;;;;;2.73;2.37;;;;;;;;;;5057324;27;88909;-57
2023/10/17 02:54:59;;;;;;;5.27;2.63;;;;;;;;;;5059816;27;87511;-57
2023/10/17 02:57:33;;;;;;;3.97;2.63;;;;;;;;;;5057703;27;89709;-57
2023/10/17 03:00:21;;;;;;;4.70;2.77;;;;;;;;;;5059589;27;88237;-57
2023/10/17 03:02:50;;;;;;;4.03;2.80;;;;;;;;;;5058984;27;89063;-57
2023/10/17 03:05:19;;;;;;;5.83;3.37;;;;;;;;;;5059602;27;87613;-57
2023/10/17 03:07:51;;;;;;;5.53;4.00;;;;;;;;;;5058095;27;89620;-57
2023/10/17 03:10:26;;;;;;;5.47;4.00;;;;;;;;;;5058899;27;88784;-58
2023/10/17 03:12:55;;;;;;;6.80;3.43;;;;;;;;;;5055262;27;89805;-58
2023/10/17 03:15:29;;;;;;;8.17;3.70;;;;;;;;;;5058944;27;87644;-57
2023/10/17 03:18:00;;;;;;;6.60;3.73;;;;;;;;;;5058292;27;89540;-58
2023/10/17 03:20:40;;;;;;;5.20;3.90;;;;;;;;;;5058676;27;89261;-58
2023/10/17 03:23:10;;;;;;;6.70;3.83;;;;;;;;;;5060199;27;87710;-58
2023/10/17 03:25:37;;;;;;;7.47;3.63;;;;;;;;;;5060639;27;87688;-58
2023/10/17 03:28:08;;;;;;;8.83;3.97;;;;;;;;;;5060255;27;89725;-57
2023/10/17 03:30:38;;;;;;;8.00;5.03;;;;;;;;;;5060639;27;91602;-57
2023/10/17 03:33:08;;;;;;;4.67;3.93;;;;;;;;;;5059934;27;88863;-58
2023/10/17 03:35:45;;;;;;;8.97;3.73;;;;;;;;;;5059766;27;87961;-58
2023/10/17 03:38:15;;;;;;;7.33;4.67;;;;;;;;;;5057631;27;87514;-57
2023/10/17 03:40:52;;;;;;;7.13;4.10;;;;;;;;;;5054704;27;88960;-58
2023/10/17 03:43:22;;;;;;;6.33;4.40;;;;;;;;;;5054943;27;88744;-58
2023/10/17 03:45:56;;;;;;;9.60;4.87;;;;;;;;;;5062341;27;87573;-58
2023/10/17 03:48:28;;;;;;;7.03;5.00;;;;;;;;;;5061037;27;89636;-58
2023/10/17 03:51:08;;;;;;;7.47;4.13;;;;;;;;;;5059527;27;89146;-58
2023/10/17 03:53:44;;;;;;;6.10;4.63;;;;;;;;;;5060552;27;88701;-58
2023/10/17 03:56:23;;;;;;;5.10;4.27;;;;;;;;;;5060822;27;88142;-58
2023/10/17 03:58:57;;;;;;;9.47;5.37;;;;;;;;;;5059514;27;89757;-58
2023/10/17 04:01:27;;;;;;;7.43;4.93;;;;;;;;;;5058124;27;90159;-58
2023/10/17 04:03:56;;;;;;;7.43;4.13;;;;;;;;;;5060825;27;89819;-58
2023/10/17 04:06:39;;;;;;;6.67;4.00;;;;;;;;;;5060214;27;88810;-58
2023/10/17 04:09:17;;;;;;;6.13;4.13;;;;;;;;;;5058671;27;88498;-58
2023/10/17 04:11:46;;;;;;;9.17;4.90;;;;;;;;;;5059310;27;89700;-58
2023/10/17 04:14:17;;;;;;;6.53;4.00;;;;;;;;;;5060972;27;88820;-57
2023/10/17 04:16:48;;;;;;;5.20;3.80;;;;;;;;;;5062431;27;87560;-57
2023/10/17 04:19:20;;;;;;;5.03;3.40;;;;;;;;;;5062424;27;87827;-57
2023/10/17 04:22:01;;;;;;;4.57;3.43;;;;;;;;;;5062245;27;88981;-58
2023/10/17 04:24:45;;;;;;;6.30;4.20;;;;;;;;;;5042237;28;88827;-58
2023/10/17 04:27:30;;;;;;;6.37;3.90;;;;;;;;;;5043483;27;87911;-57
2023/10/17 04:29:59;;;;;;;6.13;4.23;;;;;;;;;;5061787;27;88459;-58
2023/10/17 04:32:33;;;;;;;5.43;3.80;;;;;;;;;;5061060;27;88794;-58
2023/10/17 04:35:03;;;;;;;8.50;4.97;;;;;;;;;;5061108;27;88908;-58
2023/10/17 04:37:37;;;;;;;6.57;4.37;;;;;;;;;;5062905;27;87283;-60
2023/10/17 04:43:43;;;;;;;5.43;3.50;;;;;;;;;;5057255;27;89133;-54
2023/10/17 04:45:54;;;;;;;8.07;3.97;;;;;;;;;;5061981;27;88768;-55
2023/10/17 04:48:34;;;;;;;11.53;4.17;;;;;;;;;;5063073;27;87566;-61
2023/10/17 04:51:13;;;;;;;7.80;4.03;;;;;;;;;;5061967;27;89625;-61
2023/10/17 04:53:48;;;;;;;6.57;3.57;;;;;;;;;;5061809;27;88850;-60
2023/10/17 04:56:16;;;;;;;4.93;3.50;;;;;;;;;;5061594;27;89861;-61
2023/10/17 04:58:53;;;;;;;6.43;3.53;;;;;;;;;;5055048;27;87619;-61
2023/10/17 05:01:35;;;;;;;4.63;3.57;;;;;;;;;;5058452;27;89630;-61
2023/10/17 05:04:18;;;;;;;4.03;3.03;;;;;;;;;;5050138;27;89060;-61
2023/10/17 06:19:21;;;;;;;3.77;2.53;;;;;;;;;;5060354;27;88511;-60
2023/10/17 06:24:56;;;;;;;5.83;2.93;;;;;;;;;;5060110;27;88698;-60
2023/10/17 06:30:33;;;;;;;3.77;2.73;;;;;;;;;;4977512;28;89622;-61
2023/10/17 06:33:09;;;;;;;4.93;2.40;;;;;;;;;;4978562;28;89101;-58
2023/10/17 06:35:44;;;;;;;3.77;2.10;;;;;;;;;;5026054;27;87739;-61
2023/10/17 06:38:16;;;;;;;2.93;1.83;;;;;;;;;;5060923;27;87596;-61
2023/10/17 06:40:51;;;;;;;4.47;3.13;;;;;;;;;;5060667;27;89795;-61
2023/10/17 06:43:31;;;;;;;2.00;1.80;;;;;;;;;;5060505;27;90017;-60
2023/10/17 06:46:05;;;;;;;4.80;2.40;;;;;;;;;;5060671;27;89856;-61
2023/10/17 06:48:35;;;;;;;4.47;2.43;;;;;;;;;;5060498;27;87600;-61
2023/10/17 06:53:55;;;;;;;3.53;1.97;;;;;;;;;;5040157;27;89133;-61
2023/10/17 06:56:25;;;;;;;3.50;2.10;;;;;;;;;;5053982;27;88645;-62
2023/10/17 06:59:04;;;;;;;3.37;2.20;;;;;;;;;;5060375;27;87375;-60
2023/10/17 07:01:35;;;;;;;4.40;2.57;;;;;;;;;;5059973;27;89755;-60
2023/10/17 07:04:07;;;;;;;2.67;2.20;;;;;;;;;;5059622;27;89105;-60
2023/10/17 07:06:40;;;;;;;3.53;2.00;;;;;;;;;;5053381;27;87815;-61
2023/10/17 07:09:18;;;;;;;4.07;2.80;;;;;;;;;;5059710;27;87874;-61
2023/10/17 07:11:48;;;;;;;2.83;2.20;;;;;;;;;;5059950;27;89755;-61
2023/10/17 07:14:24;;;;;;;2.53;2.10;;;;;;;;;;5060354;27;89057;-61
2023/10/17 07:17:00;;;;;;;2.47;1.80;;;;;;;;;;5059180;27;89026;-61
2023/10/17 07:22:21;;;;;;;2.47;1.50;;;;;;;;;;5022488;27;89644;-61
2023/10/17 07:24:50;;;;;;;2.57;1.47;;;;;;;;;;5043423;27;89362;-61
2023/10/17 07:27:26;;;;;;;4.83;1.40;;;;;;;;;;5059901;27;88665;-61
2023/10/17 07:30:01;;;;;;;3.77;1.23;;;;;;;;;;5062524;27;88643;-61
2023/10/17 07:32:44;;;;;;;1.70;1.47;;;;;;;;;;5063128;27;89538;-60
2023/10/17 07:35:16;;;;;;;1.37;1.20;;;;;;;;;;5063236;27;90118;-60
2023/10/17 07:37:55;;;;;;;2.83;1.33;;;;;;;;;;5064124;27;91786;-60
2023/10/17 07:40:33;;;;;;;5.13;1.30;;;;;;;;;;5063906;27;87559;-60
2023/10/17 07:43:01;;;;;;;2.87;1.30;;;;;;;;;;5063327;27;89625;-60
2023/10/17 07:45:39;;;;;;;2.07;1.20;;;;;;;;;;5063693;27;88026;-59
2023/10/17 07:48:24;;;;;;;1.97;1.13;;;;;;;;;;5063462;27;88985;-60
2023/10/17 07:50:54;;;;;;;4.17;1.13;;;;;;;;;;5063947;27;87121;-60
2023/10/17 07:53:22;;;;;;;1.63;0.93;;;;;;;;;;5063396;27;89510;-59
2023/10/17 07:55:53;;;;;;;1.73;1.00;;;;;;;;;;5063539;27;89164;-60
2023/10/17 08:01:14;;;;;;;1.10;1.00;;;;;;;;;;5062835;27;87748;-59
2023/10/17 08:03:54;;;;;;;0.80;0.80;;;;;;;;;;5062833;27;89692;-60
2023/10/17 08:06:28;;;;;;;4.20;0.97;;;;;;;;;;5063212;27;89068;-59
2023/10/17 08:08:59;;;;;;;1.03;0.93;;;;;;;;;;5063312;27;88793;-60
2023/10/17 08:11:30;;;;;;;5.17;1.10;;;;;;;;;;5062873;27;87867;-59
2023/10/17 08:14:01;;;;;;;3.40;1.10;;;;;;;;;;5063072;27;89620;-60
2023/10/17 08:16:39;;;;;;;2.73;0.93;;;;;;;;;;5059278;27;88681;-60
2023/10/17 08:19:14;;;;;;;1.83;1.10;;;;;;;;;;5062017;27;87723;-60
2023/10/17 08:21:49;;;;;;;3.60;1.30;;;;;;;;;;5063311;27;87499;-60
2023/10/17 08:24:26;;;;;;;1.80;1.13;;;;;;;;;;5062968;27;89701;-60
2023/10/17 08:29:40;;;;;;;0.90;0.80;;;;;;;;;;5041732;27;89803;-59
2023/10/17 08:32:38;;;;;;;0.90;0.90;;;;;;;;;;5042624;28;87505;-59
2023/10/17 08:35:10;;;;;;;2.07;1.10;;;;;;;;;;5057671;27;88776;-59
2023/10/17 08:37:43;;;;;;;0.80;0.73;;;;;;;;;;5062646;27;89127;-59
2023/10/17 08:42:57;;;;;;;2.37;1.00;;;;;;;;;;5052430;27;87580;-59
2023/10/17 08:45:26;;;;;;;1.97;0.90;;;;;;;;;;5062281;27;89673;-58
2023/10/17 08:48:00;;;;;;;3.13;1.00;;;;;;;;;;5062866;27;89104;-59
2023/10/17 08:50:30;;;;;;;1.50;1.17;;;;;;;;;;5042406;28;88961;-59
2023/10/17 08:52:59;;;;;;;2.57;1.00;;;;;;;;;;5041955;28;88132;-59
2023/10/17 08:55:28;;;;;;;3.77;1.00;;;;;;;;;;5042139;28;89685;-59
2023/10/17 08:57:59;;;;;;;0.60;0.53;;;;;;;;;;5041601;28;89273;-59
2023/10/17 09:03:12;;;;;;;1.00;0.70;;;;;;;;;;5042199;28;87520;-59
2023/10/17 09:05:58;;;;;;;0.63;0.63;;;;;;;;;;5042144;28;89964;-60
2023/10/17 09:08:42;;;;;;;0.73;0.70;;;;;;;;;;5042084;27;88278;-60
2023/10/17 09:11:14;;;;;;;1.03;0.70;;;;;;;;;;5042225;28;89007;-59
2023/10/17 09:16:41;;;;;;;0.80;0.60;;;;;;;;;;5061890;27;89656;-60
2023/10/17 09:19:11;;;;;;;0.70;0.70;;;;;;;;;;5061283;27;92845;-60
2023/10/17 09:21:42;;;;;;;0.70;0.60;;;;;;;;;;5062116;27;89444;-60
2023/10/17 09:24:25;;;;;;;1.10;0.67;;;;;;;;;;5062275;27;87485;-59
2023/10/17 09:26:56;;;;;;;0.90;0.63;;;;;;;;;;5059831;27;89756;-60
2023/10/17 09:29:27;;;;;;;2.20;0.43;;;;;;;;;;5062255;27;88544;-59
2023/10/17 09:31:56;;;;;;;1.33;0.80;;;;;;;;;;5066447;27;87695;-60
2023/10/17 09:34:28;;;;;;;0.40;0.40;;;;;;;;;;5061303;27;87623;-60
2023/10/17 09:37:04;;;;;;;0.43;0.43;;;;;;;;;;5061760;27;89607;-59
2023/10/17 09:39:33;;;;;;;0.67;0.40;;;;;;;;;;5055101;27;89297;-59
2023/10/17 09:42:05;;;;;;;0.70;0.57;;;;;;;;;;5060640;27;88837;-60
2023/10/17 09:44:35;;;;;;;0.40;0.40;;;;;;;;;;5060609;27;88071;-59
2023/10/17 09:47:06;;;;;;;0.77;0.70;;;;;;;;;;5060708;27;89530;-59
2023/10/17 09:49:37;;;;;;;1.33;0.63;;;;;;;;;;5061395;27;89233;-59
2023/10/17 09:52:09;;;;;;;1.13;0.43;;;;;;;;;;5060690;27;88436;-59
2023/10/17 09:54:40;;;;;;;1.10;0.80;;;;;;;;;;5061472;27;87286;-59
2023/10/17 09:57:12;;;;;;;1.13;0.80;;;;;;;;;;5060832;27;89755;-59
2023/10/17 09:59:42;;;;;;;1.13;0.60;;;;;;;;;;5060728;27;89116;-59
2023/10/17 10:02:10;;;;;;;1.40;1.30;;;;;;;;;;5061439;27;88886;-59
2023/10/17 10:04:40;;;;;;;0.73;0.60;;;;;;;;;;5060422;27;87653;-59
2023/10/17 10:07:25;;;;;;;1.37;0.70;;;;;;;;;;5060034;27;88591;-59
2023/10/17 10:09:54;;;;;;;0.87;0.80;;;;;;;;;;5046113;27;88974;-59
2023/10/17 10:12:22;;;;;;;0.70;0.70;;;;;;;;;;5052634;27;90004;-59
2023/10/17 10:14:50;;;;;;;0.87;0.60;;;;;;;;;;5061648;27;87515;-59
2023/10/17 10:17:19;;;;;;;0.50;0.50;;;;;;;;;;5059859;27;89616;-58
2023/10/17 10:20:05;;;;;;;1.77;0.70;;;;;;;;;;5061095;27;89252;-55
2023/10/17 10:22:52;;;;;;;0.60;0.40;;;;;;;;;;5061065;27;88866;-57
2023/10/17 10:25:22;;;;;;;2.27;0.87;;;;;;;;;;5061286;27;87649;-58
2023/10/17 10:28:09;;;;;;;0.50;0.50;;;;;;;;;;5060785;27;89709;-55
2023/10/17 10:30:43;;;;;;;2.33;0.70;;;;;;;;;;5061172;27;89023;-57
2023/10/17 10:33:13;;;;;;;1.17;0.70;;;;;;;;;;5060815;27;87750;-58
2023/10/17 10:35:45;;;;;;;0.50;0.50;;;;;;;;;;5060202;27;87909;-58
2023/10/17 10:38:13;;;;;;;0.87;0.70;;;;;;;;;;5060846;27;89678;-59
2023/10/17 10:40:41;;;;;;;2.97;1.00;;;;;;;;;;5060730;27;89243;-56
2023/10/17 10:43:12;;;;;;;1.57;0.60;;;;;;;;;;5059698;27;89363;-59
2023/10/17 10:45:42;;;;;;;5.80;1.53;;;;;;;;;;5060644;27;87659;-59
2023/10/17 10:48:14;;;;;;;4.13;1.93;;;;;;;;;;5059708;27;89682;-58
2023/10/17 10:50:44;;;;;;;2.97;1.97;;;;;;;;;;5045544;27;88018;-60
2023/10/17 10:53:22;;;;;;;5.40;2.10;;;;;;;;;;5061377;27;88793;-57
2023/10/17 10:55:55;;;;;;;12.37;6.43;;;;;;;;;;5063783;27;87589;-59
2023/10/17 10:58:24;;;;;;;9.70;6.47;;;;;;;;;;5063995;27;89754;-59
2023/10/17 11:00:54;;;;;;;5.63;3.73;;;;;;;;;;5063539;27;90162;-59
2023/10/17 11:03:23;;;;;;;2.40;2.20;;;;;;;;;;5064088;27;89792;-58
2023/10/17 11:05:58;;;;;;;4.13;2.30;;;;;;;;;;5065330;27;87374;-58
2023/10/17 11:08:27;;;;;;;4.47;2.03;;;;;;;;;;5065479;27;88541;-58
2023/10/17 11:11:00;;;;;;;1.93;1.73;;;;;;;;;;5060325;27;89078;-56
2023/10/17 11:13:34;;;;;;;1.73;1.30;;;;;;;;;;5060394;27;87721;-59
2023/10/17 11:16:04;;;;;;;1.83;1.40;;;;;;;;;;5061483;27;87685;-58
2023/10/17 11:18:38;;;;;;;1.80;1.57;;;;;;;;;;5061020;27;89739;-61
2023/10/17 11:21:09;;;;;;;7.80;2.73;;;;;;;;;;5062770;27;89191;-62
2023/10/17 11:23:39;;;;;;;3.60;1.60;;;;;;;;;;5062159;27;88589;-58
2023/10/17 11:26:09;;;;;;;1.70;0.90;;;;;;;;;;5059953;27;87997;-58
2023/10/17 11:28:55;;;;;;;3.10;1.13;;;;;;;;;;5066384;27;89445;-58
2023/10/17 11:31:24;;;;;;;1.33;0.87;;;;;;;;;;5063641;27;89151;-59
2023/10/17 11:33:57;;;;;;;0.60;0.60;;;;;;;;;;5063803;27;88829;-57
2023/10/17 11:36:35;;;;;;;8.57;1.10;;;;;;;;;;5064049;27;87453;-58
2023/10/17 11:39:05;;;;;;;2.03;0.80;;;;;;;;;;5063043;27;89622;-58
2023/10/17 11:41:39;;;;;;;2.07;0.77;;;;;;;;;;5062844;27;89211;-57
2023/10/17 11:44:09;;;;;;;1.47;0.70;;;;;;;;;;5062727;27;88787;-58
2023/10/17 11:46:38;;;;;;;0.73;0.73;;;;;;;;;;5060614;27;87714;-58
2023/10/17 11:49:20;;;;;;;2.73;0.87;;;;;;;;;;5058431;27;89751;-59
2023/10/17 11:51:54;;;;;;;0.63;0.63;;;;;;;;;;5059493;27;89042;-58
2023/10/17 11:54:24;;;;;;;1.03;0.83;;;;;;;;;;5059122;27;90066;-61
2023/10/17 11:56:56;;;;;;;0.70;0.70;;;;;;;;;;5061531;27;87448;-61
2023/10/17 11:59:25;;;;;;;1.10;0.80;;;;;;;;;;5061071;27;89715;-55
2023/10/17 12:01:53;;;;;;;1.73;1.37;;;;;;;;;;5061102;27;89134;-60
2023/10/17 12:04:23;;;;;;;3.17;1.50;;;;;;;;;;5057268;27;88862;-61
2023/10/17 12:06:53;;;;;;;1.43;0.73;;;;;;;;;;5061455;27;88153;-62
2023/10/17 12:09:23;;;;;;;3.87;1.00;;;;;;;;;;5060559;27;88594;-61
2023/10/17 12:11:52;;;;;;;2.30;1.10;;;;;;;;;;5062026;27;89825;-61
2023/10/17 12:14:21;;;;;;;1.83;1.30;;;;;;;;;;5058121;27;88752;-61
2023/10/17 12:16:53;;;;;;;1.73;1.37;;;;;;;;;;5058700;27;87820;-62
2023/10/17 12:19:22;;;;;;;2.53;1.47;;;;;;;;;;5060819;27;90006;-62
2023/10/17 12:21:50;;;;;;;2.03;0.90;;;;;;;;;;5060307;27;89039;-61
2023/10/17 12:24:24;;;;;;;4.03;0.93;;;;;;;;;;5061707;27;91049;-62
2023/10/17 12:26:53;;;;;;;2.30;1.23;;;;;;;;;;5060063;27;87499;-61
2023/10/17 12:29:25;;;;;;;3.33;1.43;;;;;;;;;;5061410;27;89516;-61
2023/10/17 12:31:54;;;;;;;2.93;1.20;;;;;;;;;;5059074;27;89150;-61
2023/10/17 12:34:22;;;;;;;1.63;1.20;;;;;;;;;;5060914;27;89009;-61
2023/10/17 12:36:51;;;;;;;5.20;1.10;;;;;;;;;;5061016;27;88979;-61
2023/10/17 12:39:21;;;;;;;4.77;1.23;;;;;;;;;;5059751;27;89692;-61
2023/10/17 12:41:50;;;;;;;4.00;1.40;;;;;;;;;;5057188;27;90758;-61
2023/10/17 12:44:19;;;;;;;1.10;1.00;;;;;;;;;;5053912;27;89891;-61
2023/10/17 12:46:47;;;;;;;1.40;0.90;;;;;;;;;;5059393;27;89903;-61
2023/10/17 12:49:16;;;;;;;2.17;1.30;;;;;;;;;;5061685;27;90122;-62
2023/10/17 12:51:47;;;;;;;2.13;1.60;;;;;;;;;;5062162;27;89165;-61
2023/10/17 12:54:15;;;;;;;5.43;1.33;;;;;;;;;;5062296;27;89469;-61
2023/10/17 12:56:45;;;;;;;1.90;1.33;;;;;;;;;;5062135;27;87187;-61
2023/10/17 12:59:14;;;;;;;7.83;1.63;;;;;;;;;;5059683;27;89605;-61
2023/10/17 13:01:43;;;;;;;1.40;1.30;;;;;;;;;;5060227;27;89161;-61
2023/10/17 13:04:12;;;;;;;1.87;1.50;;;;;;;;;;5060345;27;87783;-57
2023/10/17 13:06:41;;;;;;;2.70;1.30;;;;;;;;;;5060188;27;87985;-58
2023/10/17 13:09:11;;;;;;;1.70;1.37;;;;;;;;;;5058153;27;89733;-58
2023/10/17 13:11:39;;;;;;;2.13;1.20;;;;;;;;;;5059137;27;88139;-58
2023/10/17 13:14:09;;;;;;;5.47;1.17;;;;;;;;;;5060003;27;88771;-59
2023/10/17 13:16:38;;;;;;;5.47;1.50;;;;;;;;;;5060152;27;87382;-58
2023/10/17 13:19:08;;;;;;;2.13;1.20;;;;;;;;;;5059895;27;89812;-57
2023/10/17 13:21:37;;;;;;;0.77;0.77;;;;;;;;;;5059184;27;89192;-59
2023/10/17 13:24:09;;;;;;;4.53;1.30;;;;;;;;;;5060873;27;87546;-59
2023/10/17 13:26:38;;;;;;;1.97;0.97;;;;;;;;;;5057923;27;87604;-60
2023/10/17 13:29:06;;;;;;;2.33;0.90;;;;;;;;;;5060107;27;89517;-60
2023/10/17 13:31:37;;;;;;;1.53;0.80;;;;;;;;;;5058977;27;90102;-60
2023/10/17 13:34:05;;;;;;;3.70;2.17;;;;;;;;;;5060212;27;89844;-59
2023/10/17 13:36:34;;;;;;;5.20;1.30;;;;;;;;;;5060345;27;89214;-60
2023/10/17 13:39:05;;;;;;;3.70;1.40;;;;;;;;;;5059901;27;89915;-59
2023/10/17 13:41:34;;;;;;;10.87;1.87;;;;;;;;;;5060504;27;89132;-59
2023/10/17 13:44:02;;;;;;;1.30;1.10;;;;;;;;;;5060072;27;88947;-59
2023/10/17 13:46:32;;;;;;;1.80;1.10;;;;;;;;;;5060553;27;87397;-59
2023/10/17 13:49:02;;;;;;;1.73;1.30;;;;;;;;;;5060095;27;89737;-58
2023/10/17 13:51:35;;;;;;;2.67;1.30;;;;;;;;;;5059972;27;89228;-58
2023/10/17 13:54:05;;;;;;;1.80;1.57;;;;;;;;;;5059622;27;88846;-59
2023/10/17 13:56:34;;;;;;;1.93;1.10;;;;;;;;;;5059616;27;88074;-59
2023/10/17 13:59:04;;;;;;;2.50;1.50;;;;;;;;;;5059600;27;88520;-59
2023/10/17 14:01:41;;;;;;;7.80;1.73;;;;;;;;;;5059445;27;89146;-60
2023/10/17 14:04:11;;;;;;;5.53;1.60;;;;;;;;;;5058252;27;88859;-60
2023/10/17 14:06:42;;;;;;;2.47;1.60;;;;;;;;;;5061447;27;87608;-60
2023/10/17 14:09:15;;;;;;;0.77;0.77;;;;;;;;;;5060059;27;89878;-66
2023/10/17 14:11:46;;;;;;;1.13;1.00;;;;;;;;;;5060047;27;89070;-58
2023/10/17 14:14:15;;;;;;;2.27;1.20;;;;;;;;;;5059664;27;87927;-61
2023/10/17 14:16:44;;;;;;;4.13;1.00;;;;;;;;;;5059502;27;89381;-62
2023/10/17 14:19:15;;;;;;;3.80;1.20;;;;;;;;;;5056823;27;89541;-62
2023/10/17 14:22:01;;;;;;;1.80;1.10;;;;;;;;;;5059672;27;89126;-62
2023/10/17 14:24:49;;;;;;;3.87;1.03;;;;;;;;;;5060087;27;89641;-62
2023/10/17 14:27:20;;;;;;;0.87;0.87;;;;;;;;;;5060650;27;87244;-63
2023/10/17 14:29:49;;;;;;;1.07;0.70;;;;;;;;;;5061421;27;89734;-63
2023/10/17 14:32:17;;;;;;;0.57;0.57;;;;;;;;;;5060900;27;89267;-63
2023/10/17 14:34:47;;;;;;;5.90;1.23;;;;;;;;;;5060980;27;88988;-62
2023/10/17 14:37:17;;;;;;;4.10;0.90;;;;;;;;;;5059534;27;87537;-63
2023/10/17 14:39:46;;;;;;;4.97;0.90;;;;;;;;;;5037948;27;89773;-63
2023/10/17 14:42:14;;;;;;;1.23;0.90;;;;;;;;;;5037801;28;89085;-62
2023/10/17 14:44:45;;;;;;;0.63;0.60;;;;;;;;;;5037588;28;88126;-62
2023/10/17 14:47:17;;;;;;;1.73;1.03;;;;;;;;;;5037157;28;88061;-62
2023/10/17 14:49:46;;;;;;;4.57;0.97;;;;;;;;;;5037406;28;89938;-62
2023/10/17 14:52:15;;;;;;;1.13;1.00;;;;;;;;;;5039262;27;89239;-61
2023/10/17 14:54:48;;;;;;;0.70;0.60;;;;;;;;;;5049328;27;88819;-61
2023/10/17 14:57:17;;;;;;;0.70;0.60;;;;;;;;;;5056323;27;87677;-61
2023/10/17 14:59:46;;;;;;;0.63;0.60;;;;;;;;;;5057243;27;89611;-61
2023/10/17 15:02:15;;;;;;;1.23;0.70;;;;;;;;;;5056118;27;89276;-61
2023/10/17 15:04:44;;;;;;;0.53;0.53;;;;;;;;;;5053743;27;90320;-62
2023/10/17 15:07:13;;;;;;;0.43;0.40;;;;;;;;;;5054597;27;88076;-61
2023/10/17 15:09:42;;;;;;;0.53;0.43;;;;;;;;;;5056787;27;89236;-62
2023/10/17 15:12:11;;;;;;;1.63;0.50;;;;;;;;;;5056061;27;90089;-61
2023/10/17 15:14:39;;;;;;;4.87;0.90;;;;;;;;;;5055880;27;88326;-62
2023/10/17 15:17:08;;;;;;;2.10;0.60;;;;;;;;;;5053726;27;88066;-63
2023/10/17 15:19:37;;;;;;;1.67;0.83;;;;;;;;;;5056388;27;89754;-62
2023/10/17 15:22:05;;;;;;;13.50;2.77;;;;;;;;;;5054307;27;89242;-72
2023/10/17 15:24:34;;;;;;;7.13;1.90;;;;;;;;;;5056941;27;87369;-63
2023/10/17 15:27:06;;;;;;;9.60;2.47;;;;;;;;;;5057140;27;88095;-57
2023/10/17 15:29:34;;;;;;;7.00;2.13;;;;;;;;;;5057066;27;89817;-69
2023/10/17 15:32:02;;;;;;;6.03;3.20;;;;;;;;;;5056949;27;90571;-58
2023/10/17 15:34:33;;;;;;;10.80;2.87;;;;;;;;;;5056779;27;88787;-57
2023/10/17 15:37:01;;;;;;;3.03;1.47;;;;;;;;;;5056416;27;88274;-58
2023/10/17 15:39:30;;;;;;;2.10;1.70;;;;;;;;;;5058284;27;90329;-66
2023/10/17 15:41:59;;;;;;;2.87;1.30;;;;;;;;;;5059069;27;89218;-58
2023/10/17 15:44:29;;;;;;;5.63;2.13;;;;;;;;;;5056628;27;88855;-57
2023/10/17 15:46:58;;;;;;;1.50;1.20;;;;;;;;;;5043514;27;87388;-65
2023/10/17 15:49:26;;;;;;;3.33;2.00;;;;;;;;;;5059583;27;89857;-59
2023/10/17 15:51:55;;;;;;;6.07;1.90;;;;;;;;;;5059477;27;88449;-60
2023/10/17 15:54:24;;;;;;;4.30;1.20;;;;;;;;;;5059986;27;89014;-60
2023/10/17 15:56:52;;;;;;;6.87;1.63;;;;;;;;;;5059251;27;87463;-61
2023/10/17 15:59:21;;;;;;;2.63;1.23;;;;;;;;;;5059615;27;89926;-58
2023/10/17 16:01:50;;;;;;;5.50;1.80;;;;;;;;;;5059140;27;90117;-58
2023/10/17 16:04:19;;;;;;;2.17;0.90;;;;;;;;;;5059407;27;90135;-59
2023/10/17 16:06:48;;;;;;;1.90;1.30;;;;;;;;;;5059965;27;87656;-58
2023/10/17 16:09:20;;;;;;;6.40;1.13;;;;;;;;;;5060100;27;89682;-57
2023/10/17 16:11:48;;;;;;;3.80;1.40;;;;;;;;;;5059461;27;89017;-58
2023/10/17 16:14:17;;;;;;;1.27;1.00;;;;;;;;;;5059195;27;87992;-58
2023/10/17 16:16:45;;;;;;;1.00;0.73;;;;;;;;;;5060444;27;88011;-58
2023/10/17 16:19:15;;;;;;;1.90;1.07;;;;;;;;;;5059679;27;89215;-58
2023/10/17 16:21:45;;;;;;;3.03;0.90;;;;;;;;;;5059468;27;89448;-57
2023/10/17 16:24:13;;;;;;;1.13;0.70;;;;;;;;;;5059524;27;88790;-58
2023/10/17 16:26:43;;;;;;;1.60;0.90;;;;;;;;;;5059305;27;87852;-58
2023/10/17 16:29:12;;;;;;;0.80;0.80;;;;;;;;;;5059723;27;89742;-58
2023/10/17 16:31:40;;;;;;;1.57;0.90;;;;;;;;;;5059180;27;89268;-58
2023/10/17 16:34:10;;;;;;;0.90;0.73;;;;;;;;;;5059091;27;88640;-58
2023/10/17 16:36:40;;;;;;;2.00;0.97;;;;;;;;;;5059555;27;87640;-58
2023/10/17 16:39:08;;;;;;;3.43;0.90;;;;;;;;;;5059557;27;89759;-58
2023/10/17 16:41:36;;;;;;;1.73;0.70;;;;;;;;;;5060144;27;89046;-59
2023/10/17 16:44:05;;;;;;;1.03;0.83;;;;;;;;;;5058892;27;88413;-59
2023/10/17 16:46:34;;;;;;;5.47;1.10;;;;;;;;;;5058884;27;87526;-59
2023/10/17 16:49:02;;;;;;;1.20;1.00;;;;;;;;;;5058995;27;89869;-59
2023/10/17 16:51:31;;;;;;;1.70;0.97;;;;;;;;;;5057951;27;89980;-58